Time;durP1;ratioP1;P1;durP2;ratioP2;P2;SDS_P1;SDS_P2;PMS_P1;PMS_P2;Temp;Humidity;BMP_temperature;BMP_pressure;BME280_temperature;BME280_humidity;BME280_pressure;Samples;Min_cycle;Max_cycle;Signal;HPM_P1;HPM_P2
2021/08/18 00:00:43;;;;;;;10.05;6.35;;;14.10;77.10;;;12.99;77.31;96249.75;4930332;28;20055;-65
2021/08/18 00:03:09;;;;;;;9.77;6.35;;;14.10;77.50;;;13.00;76.30;96249.56;4927650;28;20046;-65
2021/08/18 00:05:36;;;;;;;9.57;5.97;;;14.20;77.80;;;13.03;77.11;96248.34;4925110;29;20032;-65
2021/08/18 00:08:02;;;;;;;9.80;6.22;;;14.30;78.10;;;13.05;77.27;96243.66;4947709;29;20036;-65
2021/08/18 00:10:29;;;;;;;9.38;6.10;;;14.30;77.30;;;13.02;76.50;96238.78;4943707;28;20533;-65
2021/08/18 00:12:55;;;;;;;10.48;6.28;;;14.20;77.30;;;13.04;76.51;96245.50;4897085;29;20043;-65
2021/08/18 00:15:21;;;;;;;11.57;6.60;;;14.30;77.30;;;13.05;77.00;96248.94;4937216;28;20099;-65
2021/08/18 00:17:47;;;;;;;11.70;6.57;;;14.20;77.70;;;13.03;77.04;96248.34;4899040;29;20178;-65
2021/08/18 00:20:13;;;;;;;11.00;6.70;;;14.20;78.10;;;13.02;77.52;96241.44;4944950;29;20080;-65
2021/08/18 00:22:38;;;;;;;10.20;6.90;;;14.20;78.40;;;12.97;77.74;96239.41;4912328;28;20036;-65
2021/08/18 00:25:05;;;;;;;10.60;6.93;;;14.10;78.50;;;12.97;77.79;96243.84;4918548;28;20039;-65
2021/08/18 00:27:31;;;;;;;10.25;6.78;;;14.10;78.70;;;12.93;77.82;96242.63;4928313;28;20044;-65
2021/08/18 00:29:56;;;;;;;10.80;7.07;;;14.10;79.10;;;12.93;77.86;96243.44;4946253;28;20070;-65
2021/08/18 00:32:22;;;;;;;10.88;6.68;;;14.10;78.70;;;12.89;78.22;96237.72;4897901;29;20076;-65
2021/08/18 00:34:48;;;;;;;10.35;6.80;;;14.00;78.50;;;12.86;77.99;96232.84;4923055;28;20040;-65
2021/08/18 00:37:14;;;;;;;10.68;6.90;;;14.00;78.70;;;12.84;78.08;96236.72;4929889;28;20071;-65
2021/08/18 00:39:39;;;;;;;13.32;7.43;;;13.90;79.10;;;12.75;78.04;96228.16;4910452;29;20036;-65
2021/08/18 00:42:05;;;;;;;11.18;6.97;;;13.80;79.40;;;12.70;78.33;96235.88;4926256;29;20584;-65
2021/08/18 00:44:33;;;;;;;9.25;6.28;;;13.70;79.30;;;12.69;78.75;96246.63;4916429;29;20032;-64
2021/08/18 00:46:59;;;;;;;10.13;6.88;;;13.70;79.60;;;12.69;79.04;96241.34;4889071;28;20509;-66
2021/08/18 00:49:27;;;;;;;10.52;6.53;;;13.80;80.20;;;12.65;78.83;96229.53;4933322;28;20517;-65
2021/08/18 00:51:53;;;;;;;9.90;6.28;;;13.80;80.30;;;12.65;79.16;96245.38;4916799;29;20040;-65
2021/08/18 00:54:19;;;;;;;11.88;6.50;;;13.70;80.10;;;12.61;79.10;96244.97;4944562;28;20067;-65
2021/08/18 00:56:45;;;;;;;10.98;6.70;;;13.70;80.40;;;12.55;79.58;96243.94;4894573;29;20043;-65
2021/08/18 00:59:11;;;;;;;11.85;7.43;;;13.60;80.80;;;12.55;79.50;96240.50;4931770;28;20036;-65
2021/08/18 01:01:37;;;;;;;12.57;7.07;;;13.70;80.90;;;12.57;79.84;96238.47;4927118;29;20046;-66
2021/08/18 01:04:04;;;;;;;11.50;7.18;;;13.70;80.60;;;12.55;79.97;96235.22;4913341;29;20036;-65
2021/08/18 01:06:30;;;;;;;12.07;6.85;;;13.70;80.70;;;12.54;80.17;96234.41;4928500;29;20657;-66
2021/08/18 01:08:56;;;;;;;11.43;7.45;;;13.70;80.70;;;12.54;79.73;96239.69;4930392;29;20038;-65
2021/08/18 01:11:22;;;;;;;9.52;6.50;;;13.70;80.00;;;12.49;79.31;96230.72;4895550;28;20146;-65
2021/08/18 01:13:47;;;;;;;10.52;6.68;;;13.60;80.30;;;12.51;80.25;96233.97;4927384;29;20040;-64
2021/08/18 01:16:13;;;;;;;11.30;6.80;;;13.70;80.10;;;12.50;79.81;96237.63;4939268;28;20131;-64
2021/08/18 01:18:39;;;;;;;11.40;6.25;;;13.70;80.40;;;12.49;79.61;96234.19;4950041;28;20044;-64
2021/08/18 01:21:05;;;;;;;9.68;5.85;;;13.70;80.20;;;12.52;80.50;96233.78;4903983;28;20051;-65
2021/08/18 01:23:31;;;;;;;11.55;6.80;;;13.80;80.30;;;12.55;80.06;96235.22;4923079;29;20048;-65
2021/08/18 01:25:57;;;;;;;9.07;6.50;;;13.80;80.20;;;12.53;80.03;96238.06;4929265;28;20039;-65
2021/08/18 01:28:27;;;;;;;10.90;6.65;;;13.70;79.90;;;12.53;80.43;96234.59;4928799;29;20066;-65
2021/08/18 01:30:52;;;;;;;9.35;6.05;;;13.70;80.30;;;12.55;80.23;96229.94;4926339;28;20459;-65
2021/08/18 01:33:18;;;;;;;8.35;5.93;;;13.80;80.30;;;12.56;79.80;96227.09;4910207;28;20055;-66
2021/08/18 01:35:47;;;;;;;12.13;6.60;;;13.80;80.00;;;12.53;79.94;96235.41;4913196;29;20063;-65
2021/08/18 01:38:14;;;;;;;9.75;6.38;;;13.70;80.00;;;12.50;79.57;96232.34;4911593;28;20419;-65
2021/08/18 01:40:40;;;;;;;10.68;6.35;;;13.70;80.10;;;12.50;80.39;96230.53;4895489;29;20547;-65
2021/08/18 01:43:07;;;;;;;10.45;6.38;;;13.70;80.30;;;12.49;79.88;96228.91;4924803;28;20036;-65
2021/08/18 01:45:41;;;;;;;8.60;5.93;;;13.70;79.90;;;12.48;80.32;96232.56;4940982;28;20036;-65
2021/08/18 01:48:13;;;;;;;10.35;6.53;;;13.60;80.20;;;12.44;80.76;96233.13;4910657;29;20032;-65
2021/08/18 01:50:40;;;;;;;9.40;6.22;;;13.60;80.50;;;12.39;80.16;96225.81;4925324;29;20193;-65
2021/08/18 01:53:06;;;;;;;9.65;6.25;;;13.50;80.70;;;12.37;80.29;96227.00;4924578;28;20051;-65
2021/08/18 01:55:32;;;;;;;9.48;6.50;;;13.50;80.60;;;12.37;80.07;96221.75;4930653;29;20063;-66
2021/08/18 01:57:58;;;;;;;10.27;6.47;;;13.60;80.50;;;12.38;80.24;96213.63;4912006;28;21560;-65
2021/08/18 02:00:25;;;;;;;9.35;6.10;;;13.60;80.50;;;12.40;80.42;96216.88;4926747;29;20480;-65
2021/08/18 02:02:50;;;;;;;11.45;6.88;;;13.60;80.40;;;12.40;80.77;96218.72;4928466;29;20124;-65
2021/08/18 02:05:16;;;;;;;12.40;6.65;;;13.60;80.60;;;12.42;80.83;96225.41;4928388;28;20044;-66
2021/08/18 02:07:42;;;;;;;13.45;7.03;;;13.70;80.40;;;12.43;80.84;96215.66;4905838;29;20184;-65
2021/08/18 02:10:13;;;;;;;10.52;6.63;;;13.70;80.50;;;12.40;80.67;96221.34;4927106;29;20048;-65
2021/08/18 02:12:39;;;;;;;11.77;7.50;;;13.60;80.80;;;12.40;81.01;96214.25;4921339;29;20062;-65
2021/08/18 02:15:11;;;;;;;11.93;7.70;;;13.60;81.00;;;12.38;81.26;96211.00;4937725;28;20039;-65
2021/08/18 02:17:37;;;;;;;12.45;7.00;;;13.60;81.10;;;12.35;80.73;96213.22;4932001;28;20053;-65
2021/08/18 02:20:04;;;;;;;9.95;6.70;;;13.50;81.40;;;12.34;81.37;96211.59;4943633;29;20063;-65
2021/08/18 02:22:31;;;;;;;11.90;6.90;;;13.50;81.70;;;12.31;81.35;96217.25;4917628;29;20033;-65
2021/08/18 02:24:56;;;;;;;11.48;7.03;;;13.50;81.90;;;12.31;81.69;96212.00;4932231;28;20047;-65
2021/08/18 02:27:22;;;;;;;12.13;7.88;;;13.50;82.30;;;12.33;81.48;96215.25;4945443;28;20063;-66
2021/08/18 02:29:48;;;;;;;10.85;6.30;;;13.60;82.10;;;12.31;81.89;96212.00;4944843;28;20039;-66
2021/08/18 02:32:13;;;;;;;11.32;7.00;;;13.50;82.10;;;12.30;82.23;96211.16;4943591;28;20048;-65
2021/08/18 02:34:39;;;;;;;12.23;7.00;;;13.60;82.30;;;12.30;82.44;96200.63;4897697;29;20067;-65
2021/08/18 02:37:05;;;;;;;12.23;7.32;;;13.60;82.60;;;12.28;82.87;96197.38;4912587;28;20056;-66
2021/08/18 02:39:31;;;;;;;12.85;7.70;;;13.50;82.60;;;12.25;83.23;96198.59;4939169;29;20050;-66
2021/08/18 02:41:57;;;;;;;12.38;8.02;;;13.50;83.00;;;12.23;82.55;96199.78;4930956;28;20414;-66
2021/08/18 02:44:22;;;;;;;12.07;7.55;;;13.40;83.40;;;12.19;83.80;96190.63;4907955;29;20040;-68
2021/08/18 02:46:48;;;;;;;12.73;7.85;;;13.40;83.70;;;12.17;83.55;96193.44;4926198;29;20964;-67
2021/08/18 02:49:15;;;;;;;12.60;8.10;;;13.30;83.80;;;12.16;83.60;96188.38;4938280;28;20123;-66
2021/08/18 02:51:41;;;;;;;13.57;8.27;;;13.30;84.10;;;12.14;83.71;96183.31;4915127;29;20032;-66
2021/08/18 02:54:07;;;;;;;14.82;8.57;;;13.30;84.00;;;12.08;84.59;96186.72;4915224;29;20388;-66
2021/08/18 02:56:33;;;;;;;13.25;8.02;;;13.20;84.60;;;12.08;84.60;96185.91;4930601;29;20116;-67
2021/08/18 02:58:58;;;;;;;12.10;8.07;;;13.20;84.70;;;12.10;84.70;96183.91;4932486;28;20036;-67
2021/08/18 03:01:24;;;;;;;16.27;8.93;;;13.30;84.60;;;12.11;84.43;96196.06;4932925;28;20036;-67
2021/08/18 03:03:50;;;;;;;15.40;8.57;;;13.30;84.20;;;12.09;84.63;96188.34;4933353;28;20036;-67
2021/08/18 03:06:16;;;;;;;15.77;9.50;;;13.30;84.50;;;12.08;84.52;96186.72;4949677;28;20143;-67
2021/08/18 03:08:41;;;;;;;13.48;9.05;;;13.20;84.70;;;12.08;84.61;96184.09;4932779;28;20094;-67
2021/08/18 03:11:07;;;;;;;17.88;9.48;;;13.30;84.80;;;12.10;85.51;96186.53;4916728;28;20043;-66
2021/08/18 03:13:33;;;;;;;14.88;9.23;;;13.30;84.60;;;12.12;85.71;96190.59;4917216;29;20039;-66
2021/08/18 03:15:58;;;;;;;17.10;9.82;;;13.30;84.60;;;12.14;85.47;96191.22;4932727;29;20032;-67
2021/08/18 03:18:24;;;;;;;15.02;8.85;;;13.40;84.70;;;12.17;84.97;96179.47;4917484;29;20099;-66
2021/08/18 03:20:50;;;;;;;15.43;9.43;;;13.50;84.40;;;12.14;85.31;96180.66;4901650;29;20059;-66
2021/08/18 03:23:16;;;;;;;17.08;9.88;;;13.40;84.50;;;12.13;85.94;96179.03;4900790;28;20059;-66
2021/08/18 03:25:42;;;;;;;16.08;9.18;;;13.40;84.70;;;12.14;85.37;96185.94;4916567;29;20150;-66
2021/08/18 03:28:07;;;;;;;15.98;9.48;;;13.40;84.70;;;12.13;85.67;96178.22;4917371;29;20467;-66
2021/08/18 03:30:33;;;;;;;14.60;8.95;;;13.30;84.80;;;12.13;85.43;96178.22;4901366;29;20044;-66
2021/08/18 03:32:59;;;;;;;16.48;9.77;;;13.40;84.90;;;12.14;85.82;96180.66;4900571;29;20043;-67
2021/08/18 03:35:24;;;;;;;16.10;9.23;;;13.30;84.80;;;12.16;85.64;96178.66;4932156;28;20032;-67
2021/08/18 03:37:52;;;;;;;15.30;9.60;;;13.40;84.90;;;12.15;85.80;96187.56;4932900;29;20376;-66
2021/08/18 03:40:17;;;;;;;15.70;9.00;;;13.40;85.00;;;12.15;86.13;96187.56;4917071;29;20060;-67
2021/08/18 03:42:43;;;;;;;16.05;9.88;;;13.40;84.90;;;12.14;85.55;96180.66;4916504;29;20040;-67
2021/08/18 03:45:10;;;;;;;16.75;9.98;;;13.40;85.10;;;12.13;86.22;96184.31;4913525;28;20044;-67
2021/08/18 03:47:37;;;;;;;17.10;10.15;;;13.30;85.00;;;12.16;86.04;96183.91;4925437;29;20610;-67
2021/08/18 03:50:05;;;;;;;16.92;10.10;;;13.40;85.10;;;12.18;86.06;96186.34;4926909;29;20191;-69
2021/08/18 03:52:31;;;;;;;17.45;9.85;;;13.50;85.00;;;12.19;86.66;96187.97;4931740;28;20032;-68
2021/08/18 03:54:57;;;;;;;17.38;10.27;;;13.50;84.90;;;12.20;86.51;96190.41;4917316;28;20542;-67
2021/08/18 03:57:22;;;;;;;16.50;10.10;;;13.50;84.90;;;12.24;86.20;96198.78;4932206;28;20407;-67
2021/08/18 03:59:48;;;;;;;17.63;9.82;;;13.60;84.80;;;12.25;86.01;96197.78;4902015;29;20032;-67
2021/08/18 04:02:14;;;;;;;18.85;10.77;;;13.60;84.70;;;12.29;85.89;96203.47;4944722;28;20537;-67
2021/08/18 04:04:40;;;;;;;18.02;10.68;;;13.50;84.50;;;12.26;86.11;96205.47;4923972;29;20453;-68
2021/08/18 04:07:05;;;;;;;18.30;10.60;;;13.50;84.70;;;12.28;86.13;96207.91;4913502;28;20524;-67
2021/08/18 04:09:31;;;;;;;20.67;11.20;;;13.60;84.70;;;12.28;86.08;96205.28;4913662;29;20028;-67
2021/08/18 04:11:57;;;;;;;20.13;11.30;;;13.60;84.80;;;12.32;86.33;96221.53;4911613;29;20055;-67
2021/08/18 04:14:22;;;;;;;16.98;10.77;;;13.60;84.50;;;12.34;86.77;96215.03;4898002;29;20092;-68
2021/08/18 04:16:48;;;;;;;19.02;11.25;;;13.60;84.40;;;12.35;86.36;96207.94;4913804;29;20032;-67
2021/08/18 04:19:14;;;;;;;18.50;10.98;;;13.60;84.70;;;12.36;86.34;96214.84;4897597;28;20668;-67
2021/08/18 04:21:40;;;;;;;22.92;11.77;;;13.60;84.70;;;12.38;86.62;96215.44;4926987;28;20035;-67
2021/08/18 04:24:05;;;;;;;19.08;11.20;;;13.70;84.60;;;12.42;86.00;96221.97;4932500;29;20456;-67
2021/08/18 04:26:31;;;;;;;18.10;10.63;;;13.70;84.10;;;12.43;86.45;96219.13;4916712;29;20091;-66
2021/08/18 04:28:57;;;;;;;19.25;11.25;;;13.70;84.20;;;12.45;86.08;96224.22;4916741;29;20040;-67
2021/08/18 04:31:23;;;;;;;15.15;10.02;;;13.80;84.40;;;12.47;86.13;96223.00;4915679;28;20086;-67
2021/08/18 04:33:49;;;;;;;16.23;10.45;;;13.80;84.10;;;12.50;85.83;96221.81;4932412;29;20020;-67
2021/08/18 04:36:15;;;;;;;16.95;10.80;;;13.80;83.80;;;12.54;85.62;96218.56;4932404;29;20031;-67
2021/08/18 04:38:41;;;;;;;17.75;11.13;;;13.90;83.90;;;12.55;85.86;96222.84;4898841;29;20075;-67
2021/08/18 04:41:07;;;;;;;22.23;11.35;;;13.90;83.80;;;12.60;86.11;96210.88;4903347;28;20503;-67
2021/08/18 04:43:33;;;;;;;20.45;11.82;;;13.90;83.60;;;12.62;86.04;96229.94;4932031;28;20035;-67
2021/08/18 04:45:58;;;;;;;20.75;11.20;;;13.90;83.50;;;12.60;85.45;96211.69;4948307;28;20095;-67
2021/08/18 04:48:24;;;;;;;18.92;10.85;;;13.90;83.50;;;12.63;85.58;96216.56;4931638;28;20126;-67
2021/08/18 04:50:50;;;;;;;19.63;11.60;;;13.90;83.50;;;12.65;85.67;96219.81;4925045;29;20043;-66
2021/08/18 04:53:16;;;;;;;21.75;11.75;;;14.00;83.40;;;12.66;85.34;96221.44;4913550;28;20066;-67
2021/08/18 04:55:42;;;;;;;20.65;11.70;;;14.00;83.40;;;12.71;85.76;96226.94;4933260;28;20024;-67
2021/08/18 04:58:08;;;;;;;22.67;11.82;;;14.10;83.00;;;12.72;85.73;96215.38;4916365;29;20042;-67
2021/08/18 05:00:34;;;;;;;17.63;11.13;;;14.10;83.00;;;12.74;84.96;96217.81;4915587;29;20495;-67
2021/08/18 05:03:00;;;;;;;18.27;10.93;;;14.10;82.90;;;12.78;85.64;96221.69;4903168;29;20095;-69
2021/08/18 05:05:25;;;;;;;16.98;11.40;;;14.10;82.90;;;12.80;85.34;96217.81;4915643;29;20455;-67
2021/08/18 05:07:51;;;;;;;14.88;9.90;;;14.10;82.90;;;12.83;85.38;96221.88;4931954;29;20042;-67
2021/08/18 05:10:18;;;;;;;17.05;10.90;;;14.20;82.70;;;12.82;84.91;96231.63;4931477;29;20032;-67
2021/08/18 05:12:44;;;;;;;18.65;11.23;;;14.20;82.70;;;12.85;84.84;96231.22;4884547;29;20476;-67
2021/08/18 05:15:10;;;;;;;15.80;10.77;;;14.20;82.50;;;12.89;85.19;96223.72;4931445;28;20038;-67
2021/08/18 05:17:36;;;;;;;21.70;11.15;;;14.30;82.60;;;12.92;85.44;96225.19;4884583;29;20631;-67
2021/08/18 05:20:01;;;;;;;18.02;11.10;;;14.20;82.30;;;12.93;85.11;96232.88;4915703;29;20086;-67
2021/08/18 05:22:27;;;;;;;17.85;10.93;;;14.30;82.50;;;12.95;84.76;96225.59;4931205;29;20044;-67
2021/08/18 05:24:53;;;;;;;17.63;10.20;;;14.40;82.60;;;12.98;84.59;96221.72;4912575;29;20060;-67
2021/08/18 05:27:18;;;;;;;17.15;10.68;;;14.40;82.50;;;13.03;84.75;96228.03;4911941;28;20036;-67
2021/08/18 05:29:44;;;;;;;16.98;10.93;;;14.50;82.20;;;13.05;84.28;96228.63;4928181;29;20032;-67
2021/08/18 05:32:10;;;;;;;19.40;11.70;;;14.40;82.10;;;13.10;84.29;96230.66;4912763;29;20599;-67
2021/08/18 05:34:36;;;;;;;20.00;10.70;;;14.60;82.00;;;13.14;84.96;96227.44;4899840;29;20034;-67
2021/08/18 05:37:01;;;;;;;16.30;10.48;;;14.60;81.80;;;13.19;84.28;96232.16;4899857;28;20091;-67
2021/08/18 05:39:27;;;;;;;16.92;10.75;;;14.60;81.60;;;13.22;84.95;96234.38;4931130;29;20102;-68
2021/08/18 05:41:53;;;;;;;17.52;10.98;;;14.70;81.90;;;13.24;84.78;96229.72;4931055;29;20035;-68
2021/08/18 05:44:19;;;;;;;17.08;10.80;;;14.70;81.60;;;13.29;84.29;96234.38;4915633;29;20396;-68
2021/08/18 05:46:44;;;;;;;20.58;11.77;;;14.80;81.60;;;13.32;84.93;96240.06;4915629;29;20056;-69
2021/08/18 05:49:10;;;;;;;21.77;12.60;;;14.80;81.50;;;13.34;83.93;96243.31;4930013;28;20047;-70
2021/08/18 05:51:36;;;;;;;29.38;19.27;;;14.80;81.20;;;13.36;84.46;96238.66;4914005;29;20067;-68
2021/08/18 05:54:01;;;;;;;19.10;11.70;;;14.80;81.40;;;13.39;84.15;96237.44;4914824;29;20679;-69
2021/08/18 05:56:27;;;;;;;22.65;12.23;;;14.80;81.20;;;13.39;83.72;96232.97;4905653;28;20046;-68
2021/08/18 05:58:53;;;;;;;23.33;15.35;;;14.80;81.30;;;13.43;84.12;96239.47;4915060;29;20035;-68
2021/08/18 06:01:20;;;;;;;19.42;13.30;;;14.90;81.10;;;13.47;84.48;96230.13;4898739;28;20044;-68
2021/08/18 06:03:47;;;;;;;19.58;12.48;;;15.00;81.00;;;13.51;84.11;96235.81;4901481;29;20122;-68
2021/08/18 06:06:13;;;;;;;16.85;11.50;;;15.00;81.20;;;13.57;83.85;96247.38;4931510;28;20040;-66
2021/08/18 06:08:39;;;;;;;17.80;11.32;;;15.10;81.00;;;13.57;83.83;96236.81;4930597;29;20035;-66
2021/08/18 06:11:06;;;;;;;18.80;11.85;;;15.00;80.80;;;13.62;83.42;96239.69;4914514;28;20039;-67
2021/08/18 06:13:32;;;;;;;19.13;12.90;;;15.10;80.70;;;13.66;84.01;96238.25;4915325;29;20495;-66
2021/08/18 06:15:58;;;;;;;19.00;12.98;;;15.10;80.60;;;13.73;84.03;96234.56;4899706;29;20032;-66
2021/08/18 06:18:23;;;;;;;16.02;11.18;;;15.30;80.10;;;13.77;83.43;96234.97;4914796;29;20047;-67
2021/08/18 06:20:49;;;;;;;16.67;10.82;;;15.30;79.60;;;13.85;83.04;96237.41;4899251;29;20031;-67
2021/08/18 06:23:20;;;;;;;18.45;11.00;;;15.40;80.00;;;13.92;83.57;96232.91;4914743;28;20091;-66
2021/08/18 06:25:45;;;;;;;;;;;15.60;79.50;;;13.98;82.32;96245.31;4912299;29;20111;-67
2021/08/18 06:28:11;;;;;;;17.33;10.68;;;15.60;78.80;;;14.02;82.99;96243.06;4920790;29;19923;-67
2021/08/18 06:30:37;;;;;;;24.58;12.90;;;15.60;78.40;;;14.08;81.80;96243.06;4930500;29;20040;-67
2021/08/18 06:33:03;;;;;;;20.08;12.88;;;15.80;78.40;;;14.16;82.99;96236.72;4930384;28;20582;-67
2021/08/18 06:35:28;;;;;;;18.48;11.15;;;15.80;78.40;;;14.24;83.46;96241.78;4899370;29;20035;-67
2021/08/18 06:37:54;;;;;;;20.52;11.77;;;16.00;78.70;;;14.32;83.33;96238.94;4914978;29;20055;-67
2021/08/18 06:40:20;;;;;;;20.52;13.07;;;16.00;78.10;;;14.39;83.00;96236.25;4914566;29;20607;-68
2021/08/18 06:42:46;;;;;;;19.35;12.93;;;16.10;78.00;;;14.46;82.13;96239.72;4930865;29;20055;-67
2021/08/18 06:45:12;;;;;;;16.75;12.07;;;16.20;77.30;;;14.52;82.39;96240.72;4914887;28;20032;-67
2021/08/18 06:47:38;;;;;;;16.85;11.23;;;16.20;77.00;;;14.56;81.13;96240.09;4898994;29;20116;-67
2021/08/18 06:50:05;;;;;;;21.17;13.07;;;16.30;77.40;;;14.63;81.85;96240.88;4899080;29;20126;-67
2021/08/18 06:52:31;;;;;;;20.90;11.90;;;16.40;77.40;;;14.69;80.93;96240.03;4914839;29;20051;-67
2021/08/18 06:54:57;;;;;;;18.77;12.38;;;16.40;77.00;;;14.75;80.65;96240.22;4914983;29;20028;-67
2021/08/18 06:57:23;;;;;;;17.67;11.48;;;16.40;76.90;;;14.80;81.53;96246.50;4902479;28;20046;-67
2021/08/18 06:59:49;;;;;;;18.92;12.50;;;16.50;76.40;;;14.88;81.52;96237.50;4914747;29;20028;-67
2021/08/18 07:02:14;;;;;;;20.63;12.43;;;16.60;76.80;;;14.95;80.61;96228.50;4917990;29;20089;-67
2021/08/18 07:04:40;;;;;;;21.20;14.82;;;16.70;76.30;;;15.04;80.95;96230.88;4918228;29;20098;-68
2021/08/18 07:07:06;;;;;;;16.30;12.00;;;16.90;76.20;;;15.12;79.59;96233.25;4902111;28;20059;-68
2021/08/18 07:09:32;;;;;;;18.50;12.18;;;16.90;75.30;;;15.22;79.89;96233.63;4924732;29;20067;-67
2021/08/18 07:11:58;;;;;;;20.00;12.73;;;17.10;75.50;;;15.29;80.14;96237.84;4943046;28;20134;-67
2021/08/18 07:14:23;;;;;;;25.67;15.30;;;17.10;74.60;;;15.39;79.46;96233.88;4937154;28;20037;-67
2021/08/18 07:16:49;;;;;;;19.75;13.38;;;17.30;75.20;;;15.50;80.05;96231.38;4953107;28;20380;-68
2021/08/18 07:19:15;;;;;;;21.63;13.57;;;17.40;74.20;;;15.61;79.54;96227.22;4920227;28;20088;-68
2021/08/18 07:21:40;;;;;;;21.55;12.90;;;17.60;73.80;;;15.78;78.73;96232.78;4917725;29;20118;-68
2021/08/18 07:24:06;;;;;;;20.33;13.43;;;17.90;72.50;;;15.93;78.26;96220.81;4902201;29;20039;-67
2021/08/18 07:26:32;;;;;;;22.30;12.68;;;18.10;70.70;;;16.07;77.86;96225.97;4917780;29;20067;-67
2021/08/18 07:28:58;;;;;;;18.20;12.55;;;18.20;70.50;;;16.27;77.65;96221.25;4934618;28;20047;-67
2021/08/18 07:31:27;;;;;;;20.08;13.82;;;18.60;70.10;;;16.45;75.67;96226.56;4916741;28;20058;-67
2021/08/18 07:33:53;;;;;;;22.33;13.85;;;18.60;67.80;;;16.56;76.63;96224.22;4902053;29;20550;-68
2021/08/18 07:36:19;;;;;;;22.05;14.32;;;18.70;68.90;;;16.71;75.22;96228.13;4903320;29;20051;-67
2021/08/18 07:38:45;;;;;;;20.88;13.75;;;18.70;68.10;;;16.85;75.00;96234.06;4933188;28;20399;-67
2021/08/18 07:41:10;;;;;;;21.60;14.98;;;18.80;68.40;;;16.93;75.05;96224.97;4932410;28;20122;-68
2021/08/18 07:43:36;;;;;;;21.55;14.40;;;18.90;67.70;;;17.00;74.28;96226.53;4901612;29;20051;-67
2021/08/18 07:46:02;;;;;;;22.88;14.73;;;18.90;67.00;;;17.01;73.02;96228.13;4933344;29;20028;-68
2021/08/18 07:48:29;;;;;;;23.27;14.50;;;18.70;66.60;;;17.04;72.97;96233.00;4917213;28;20035;-68
2021/08/18 07:50:56;;;;;;;23.42;14.32;;;18.90;67.70;;;17.09;73.34;96230.47;4932770;29;20035;-67
2021/08/18 07:53:21;;;;;;;22.77;13.68;;;18.90;67.50;;;17.13;72.98;96236.94;4932424;28;20135;-67
2021/08/18 07:55:47;;;;;;;18.75;13.98;;;18.90;68.20;;;17.13;72.54;96233.47;4898935;29;20127;-66
2021/08/18 07:58:13;;;;;;;20.63;14.45;;;18.80;67.20;;;17.14;72.13;96238.56;4929364;29;20103;-66
2021/08/18 08:00:39;;;;;;;21.48;13.93;;;18.80;66.40;;;17.17;72.04;96237.28;4932452;29;20047;-66
2021/08/18 08:03:07;;;;;;;22.27;14.32;;;18.80;66.40;;;17.24;71.41;96237.22;4932187;28;20043;-66
2021/08/18 08:05:33;;;;;;;18.45;13.00;;;19.10;66.30;;;17.31;71.98;96232.59;4902043;29;20039;-67
2021/08/18 08:07:59;;;;;;;19.67;14.13;;;19.20;66.10;;;17.40;71.67;96233.88;4901363;29;20036;-66
2021/08/18 08:10:25;;;;;;;20.63;13.93;;;19.10;65.20;;;17.45;71.27;96231.38;4900838;29;20035;-66
2021/08/18 08:12:50;;;;;;;22.13;14.27;;;19.30;65.00;;;17.51;70.16;96243.75;4901354;29;20042;-66
2021/08/18 08:15:16;;;;;;;20.90;13.65;;;19.30;65.00;;;17.50;69.97;96236.81;4931736;28;20099;-67
2021/08/18 08:17:42;;;;;;;25.75;16.05;;;19.10;64.20;;;17.50;70.47;96247.44;4916381;29;20127;-66
2021/08/18 08:20:09;;;;;;;18.40;13.13;;;19.10;64.80;;;17.54;69.62;96243.28;4933826;28;20051;-67
2021/08/18 08:22:35;;;;;;;17.30;12.52;;;19.30;62.70;;;17.63;69.45;96246.41;4900965;29;20039;-67
2021/08/18 08:25:02;;;;;;;21.85;14.02;;;19.40;63.30;;;17.70;68.54;96237.34;4932596;29;20039;-67
2021/08/18 08:27:27;;;;;;;20.92;14.13;;;19.60;63.50;;;17.86;69.02;96237.66;4884732;29;20032;-66
2021/08/18 08:29:53;;;;;;;18.65;12.43;;;19.90;62.90;;;18.00;67.58;96239.06;4916475;29;20506;-67
2021/08/18 08:32:19;;;;;;;22.08;12.93;;;20.00;61.40;;;18.06;68.68;96240.78;4916193;29;20095;-67
2021/08/18 08:34:44;;;;;;;19.95;12.18;;;20.00;61.80;;;18.06;68.14;96246.13;4932089;29;20091;-67
2021/08/18 08:37:10;;;;;;;21.23;12.18;;;19.60;61.90;;;17.99;66.90;96234.78;4931830;28;20059;-67
2021/08/18 08:39:36;;;;;;;19.42;12.55;;;19.50;62.30;;;17.94;67.50;96237.34;4915739;29;20032;-67
2021/08/18 08:42:03;;;;;;;18.88;13.18;;;19.50;62.50;;;17.88;68.17;96235.59;4900785;29;20127;-67
2021/08/18 08:44:29;;;;;;;21.23;11.68;;;19.50;63.80;;;17.85;67.58;96233.38;4916347;29;20079;-67
2021/08/18 08:46:55;;;;;;;16.38;11.50;;;19.40;63.50;;;17.82;66.96;96233.84;4900673;29;20058;-67
2021/08/18 08:49:21;;;;;;;16.65;11.50;;;19.30;62.90;;;17.79;67.24;96234.31;4915505;28;20036;-67
2021/08/18 08:51:49;;;;;;;17.40;10.85;;;19.20;63.20;;;17.71;66.94;96233.63;4915846;29;20466;-67
2021/08/18 08:54:15;;;;;;;15.15;11.73;;;19.10;63.50;;;17.65;67.55;96233.69;4931840;29;20039;-66
2021/08/18 08:56:41;;;;;;;20.70;11.38;;;19.00;64.40;;;17.54;66.80;96247.81;4931833;29;20573;-66
2021/08/18 08:59:07;;;;;;;18.48;12.82;;;18.80;64.80;;;17.46;67.98;96240.97;4915500;28;20043;-67
2021/08/18 09:02:08;;;;;;;16.40;12.45;;;18.70;65.00;;;17.38;67.85;96249.25;4915740;29;20579;-67
2021/08/18 09:04:39;;;;;;;16.52;11.40;;;18.80;65.50;;;17.31;67.77;96245.91;4916062;29;20148;-67
2021/08/18 09:07:09;;;;;;;17.48;11.90;;;18.70;65.50;;;17.36;67.95;96246.03;4900125;28;20050;-68
2021/08/18 09:09:35;;;;;;;17.85;10.93;;;18.90;65.00;;;17.40;68.15;96252.50;4915987;29;20035;-67
2021/08/18 09:12:07;;;;;;;16.85;11.57;;;19.00;65.30;;;17.45;66.99;96244.69;4900465;29;20035;-67
2021/08/18 09:14:32;;;;;;;16.15;11.00;;;19.10;64.30;;;17.42;67.57;96245.09;4884796;29;20520;-67
2021/08/18 09:16:58;;;;;;;16.48;11.40;;;18.90;63.80;;;17.44;68.27;96248.38;4915922;29;20060;-67
2021/08/18 09:19:30;;;;;;;14.38;10.00;;;19.10;64.20;;;17.51;68.31;96250.91;4899538;28;20506;-66
2021/08/18 09:22:06;;;;;;;13.85;9.93;;;19.10;65.00;;;17.58;67.00;96248.97;4900335;29;20031;-67
2021/08/18 09:24:33;;;;;;;15.80;10.85;;;19.30;64.00;;;17.66;68.17;96254.78;4915455;29;20411;-67
2021/08/18 09:27:08;;;;;;;16.23;11.20;;;19.50;64.20;;;17.80;67.30;96243.94;4903346;29;20463;-67
2021/08/18 09:29:43;;;;;;;16.88;11.02;;;19.60;62.30;;;17.88;66.70;96248.88;4901387;29;20031;-67
2021/08/18 09:32:31;;;;;;;16.88;10.45;;;19.70;61.80;;;17.90;65.71;96247.66;4901337;29;20439;-67
2021/08/18 09:35:06;;;;;;;15.65;10.18;;;19.60;61.70;;;17.95;66.56;96245.09;4915965;29;20558;-67
2021/08/18 09:37:31;;;;;;;15.18;10.80;;;19.70;62.10;;;18.00;66.78;96250.53;4916134;29;20038;-67
2021/08/18 09:39:58;;;;;;;15.02;9.95;;;19.80;61.30;;;18.14;66.46;96251.13;4899590;29;20032;-67
2021/08/18 09:42:32;;;;;;;14.60;9.30;;;20.10;60.80;;;18.31;66.13;96244.00;4915502;29;20038;-67
2021/08/18 09:45:23;;;;;;;13.00;9.52;;;20.50;60.40;;;18.57;65.06;96241.91;4901320;29;20036;-67
2021/08/18 09:48:06;;;;;;;15.05;9.40;;;20.90;59.80;;;18.72;64.07;96234.22;4915116;29;20035;-68
2021/08/18 09:50:59;;;;;;;12.77;9.30;;;20.90;59.10;;;18.80;64.11;96236.53;4915598;29;20039;-67
2021/08/18 09:53:26;;;;;;;11.68;9.02;;;20.80;59.20;;;18.83;64.80;96238.72;4930484;28;20090;-67
2021/08/18 09:55:59;;;;;;;12.18;8.55;;;20.60;59.80;;;18.79;63.27;96234.91;4929713;29;20056;-67
2021/08/18 09:58:33;;;;;;;11.32;8.27;;;20.40;59.50;;;18.72;63.98;96233.41;4944477;28;20046;-67
2021/08/18 10:01:11;;;;;;;12.25;8.65;;;20.20;60.00;;;18.63;64.13;96235.66;4915226;29;20504;-67
2021/08/18 10:03:44;;;;;;;9.68;7.72;;;20.20;60.70;;;18.60;64.71;96242.25;4901408;29;20051;-67
2021/08/18 10:06:11;;;;;;;17.60;8.77;;;20.20;60.60;;;18.56;64.75;96240.28;4915256;29;20134;-67
2021/08/18 10:08:37;;;;;;;13.77;8.48;;;20.10;61.40;;;18.54;64.82;96240.50;4883616;29;20577;-67